sensor_id;sensor_type;location;lat;lon;timestamp;pressure;altitude;pressure_sealevel;temperature;humidity
75089;BME280;63673;49.928;8.150;2024-02-14T00:00:55;994.47;;;5.81;100
75089;BME280;63673;49.928;8.150;2024-02-14T00:01:57;994.49;;;5.81;100
75089;BME280;63673;49.928;8.150;2024-02-14T00:02:58;994.44;;;5.82;100
75089;BME280;63673;49.928;8.150;2024-02-14T00:04:00;994.37;;;5.82;100
75089;BME280;63673;49.928;8.150;2024-02-14T00:05:02;994.39;;;5.82;100
75089;BME280;63673;49.928;8.150;2024-02-14T00:06:04;994.34;;;5.82;100
75089;BME280;63673;49.928;8.150;2024-02-14T00:07:05;994.35;;;5.82;100
75089;BME280;63673;49.928;8.150;2024-02-14T00:08:07;994.31;;;5.82;100
75089;BME280;63673;49.928;8.150;2024-02-14T00:09:09;994.24;;;5.83;100
75089;BME280;63673;49.928;8.150;2024-02-14T00:10:11;994.32;;;5.83;100
75089;BME280;63673;49.928;8.150;2024-02-14T00:11:12;994.27;;;5.83;100
75089;BME280;63673;49.928;8.150;2024-02-14T00:12:14;994.23;;;5.83;100
75089;BME280;63673;49.928;8.150;2024-02-14T00:13:16;994.21;;;5.83;100
75089;BME280;63673;49.928;8.150;2024-02-14T00:14:17;994.21;;;5.83;100
75089;BME280;63673;49.928;8.150;2024-02-14T00:15:19;994.12;;;5.83;100
75089;BME280;63673;49.928;8.150;2024-02-14T00:16:21;994.14;;;5.83;100
75089;BME280;63673;49.928;8.150;2024-02-14T00:17:23;994.1;;;5.82;100
75089;BME280;63673;49.928;8.150;2024-02-14T00:18:24;994.14;;;5.83;100
75089;BME280;63673;49.928;8.150;2024-02-14T00:19:26;994.12;;;5.83;100
75089;BME280;63673;49.928;8.150;2024-02-14T00:20:28;994.1;;;5.83;100
75089;BME280;63673;49.928;8.150;2024-02-14T00:21:30;994.14;;;5.81;100
75089;BME280;63673;49.928;8.150;2024-02-14T00:22:31;994.17;;;5.83;100
75089;BME280;63673;49.928;8.150;2024-02-14T00:23:33;994.14;;;5.82;100
75089;BME280;63673;49.928;8.150;2024-02-14T00:24:35;994.15;;;5.82;100
75089;BME280;63673;49.928;8.150;2024-02-14T00:25:37;994.11;;;5.81;100
75089;BME280;63673;49.928;8.150;2024-02-14T00:26:38;994.13;;;5.82;100
75089;BME280;63673;49.928;8.150;2024-02-14T00:27:40;994.09;;;5.82;100
75089;BME280;63673;49.928;8.150;2024-02-14T00:28:42;994.12;;;5.82;100
75089;BME280;63673;49.928;8.150;2024-02-14T00:29:44;994.15;;;5.82;100
75089;BME280;63673;49.928;8.150;2024-02-14T00:30:45;994.1;;;5.82;100
75089;BME280;63673;49.928;8.150;2024-02-14T00:31:47;994.12;;;5.82;100
75089;BME280;63673;49.928;8.150;2024-02-14T00:32:49;994.12;;;5.82;100
75089;BME280;63673;49.928;8.150;2024-02-14T00:33:50;994.09;;;5.83;100
75089;BME280;63673;49.928;8.150;2024-02-14T00:34:52;994.18;;;5.83;100
75089;BME280;63673;49.928;8.150;2024-02-14T00:35:54;994.12;;;5.83;100
75089;BME280;63673;49.928;8.150;2024-02-14T00:36:56;994.17;;;5.83;100
75089;BME280;63673;49.928;8.150;2024-02-14T00:37:57;994.18;;;5.84;100
75089;BME280;63673;49.928;8.150;2024-02-14T00:38:59;994.19;;;5.85;100
75089;BME280;63673;49.928;8.150;2024-02-14T00:40:01;994.18;;;5.85;100
75089;BME280;63673;49.928;8.150;2024-02-14T00:41:03;994.13;;;5.86;100
75089;BME280;63673;49.928;8.150;2024-02-14T00:42:04;994.18;;;5.87;100
75089;BME280;63673;49.928;8.150;2024-02-14T00:43:06;994.1;;;5.89;100
75089;BME280;63673;49.928;8.150;2024-02-14T00:44:08;994.09;;;5.89;100
75089;BME280;63673;49.928;8.150;2024-02-14T00:45:10;994.14;;;5.9;100
75089;BME280;63673;49.928;8.150;2024-02-14T00:46:15;994.08;;;5.91;100
75089;BME280;63673;49.928;8.150;2024-02-14T00:47:13;994.06;;;5.92;100
75089;BME280;63673;49.928;8.150;2024-02-14T00:48:15;994.05;;;5.92;100
75089;BME280;63673;49.928;8.150;2024-02-14T00:49:16;993.99;;;5.92;100
75089;BME280;63673;49.928;8.150;2024-02-14T00:50:18;994.02;;;5.93;100
75089;BME280;63673;49.928;8.150;2024-02-14T00:51:20;993.99;;;5.94;100
75089;BME280;63673;49.928;8.150;2024-02-14T00:52:23;993.99;;;5.96;100
75089;BME280;63673;49.928;8.150;2024-02-14T00:53:25;993.99;;;5.96;100
75089;BME280;63673;49.928;8.150;2024-02-14T00:54:32;993.95;;;5.95;100
75089;BME280;63673;49.928;8.150;2024-02-14T00:55:34;993.94;;;5.96;100
75089;BME280;63673;49.928;8.150;2024-02-14T00:56:39;993.96;;;5.96;100
75089;BME280;63673;49.928;8.150;2024-02-14T00:57:43;993.91;;;5.96;100
75089;BME280;63673;49.928;8.150;2024-02-14T00:58:47;993.93;;;5.96;100
75089;BME280;63673;49.928;8.150;2024-02-14T00:59:49;993.94;;;5.96;100
75089;BME280;63673;49.928;8.150;2024-02-14T01:00:51;993.92;;;5.96;100
75089;BME280;63673;49.928;8.150;2024-02-14T01:01:53;993.92;;;5.97;100
75089;BME280;63673;49.928;8.150;2024-02-14T01:02:54;993.93;;;5.96;100
75089;BME280;63673;49.928;8.150;2024-02-14T01:03:56;993.88;;;5.96;100
75089;BME280;63673;49.928;8.150;2024-02-14T01:04:58;993.92;;;5.96;100
75089;BME280;63673;49.928;8.150;2024-02-14T01:06:00;993.86;;;5.97;100
75089;BME280;63673;49.928;8.150;2024-02-14T01:07:01;993.91;;;5.96;100
75089;BME280;63673;49.928;8.150;2024-02-14T01:08:03;993.89;;;5.96;100
75089;BME280;63673;49.928;8.150;2024-02-14T01:09:05;993.91;;;5.95;100
75089;BME280;63673;49.928;8.150;2024-02-14T01:10:07;993.86;;;5.95;100
75089;BME280;63673;49.928;8.150;2024-02-14T01:11:09;993.85;;;5.95;100
75089;BME280;63673;49.928;8.150;2024-02-14T01:12:10;993.9;;;5.96;100
75089;BME280;63673;49.928;8.150;2024-02-14T01:13:12;993.88;;;5.95;100
75089;BME280;63673;49.928;8.150;2024-02-14T01:14:13;993.88;;;5.95;100
75089;BME280;63673;49.928;8.150;2024-02-14T01:15:15;993.78;;;5.96;100
75089;BME280;63673;49.928;8.150;2024-02-14T01:16:17;993.89;;;5.96;100
75089;BME280;63673;49.928;8.150;2024-02-14T01:17:19;993.8;;;5.96;100
75089;BME280;63673;49.928;8.150;2024-02-14T01:18:20;993.84;;;5.97;100
75089;BME280;63673;49.928;8.150;2024-02-14T01:19:22;993.84;;;5.97;100
75089;BME280;63673;49.928;8.150;2024-02-14T01:20:24;993.86;;;5.96;100
75089;BME280;63673;49.928;8.150;2024-02-14T01:21:26;993.88;;;5.96;100
75089;BME280;63673;49.928;8.150;2024-02-14T01:22:27;993.87;;;5.95;100
75089;BME280;63673;49.928;8.150;2024-02-14T01:23:29;993.85;;;5.95;100
75089;BME280;63673;49.928;8.150;2024-02-14T01:24:31;993.85;;;5.96;100
75089;BME280;63673;49.928;8.150;2024-02-14T01:25:32;993.84;;;5.96;100
75089;BME280;63673;49.928;8.150;2024-02-14T01:26:34;993.86;;;5.96;100
75089;BME280;63673;49.928;8.150;2024-02-14T01:27:36;993.91;;;5.96;100
75089;BME280;63673;49.928;8.150;2024-02-14T01:28:38;993.9;;;5.96;100
75089;BME280;63673;49.928;8.150;2024-02-14T01:29:39;993.89;;;5.95;100
75089;BME280;63673;49.928;8.150;2024-02-14T01:30:41;993.89;;;5.95;100
75089;BME280;63673;49.928;8.150;2024-02-14T01:31:43;993.87;;;5.95;100
75089;BME280;63673;49.928;8.150;2024-02-14T01:32:45;993.89;;;5.95;100
75089;BME280;63673;49.928;8.150;2024-02-14T01:33:46;993.87;;;5.95;100
75089;BME280;63673;49.928;8.150;2024-02-14T01:34:48;993.87;;;5.95;100
75089;BME280;63673;49.928;8.150;2024-02-14T01:35:50;993.88;;;5.94;100
75089;BME280;63673;49.928;8.150;2024-02-14T01:36:52;993.9;;;5.94;100
75089;BME280;63673;49.928;8.150;2024-02-14T01:37:53;993.87;;;5.94;100
75089;BME280;63673;49.928;8.150;2024-02-14T01:38:55;993.88;;;5.93;100
75089;BME280;63673;49.928;8.150;2024-02-14T01:39:57;993.88;;;5.92;100
75089;BME280;63673;49.928;8.150;2024-02-14T01:40:58;993.9;;;5.93;100
75089;BME280;63673;49.928;8.150;2024-02-14T01:42:00;993.86;;;5.93;100
75089;BME280;63673;49.928;8.150;2024-02-14T01:43:02;993.91;;;5.93;100
75089;BME280;63673;49.928;8.150;2024-02-14T01:44:04;993.85;;;5.93;100
75089;BME280;63673;49.928;8.150;2024-02-14T01:45:06;993.86;;;5.93;100
75089;BME280;63673;49.928;8.150;2024-02-14T01:46:07;993.86;;;5.93;100
75089;BME280;63673;49.928;8.150;2024-02-14T01:47:09;993.86;;;5.93;100
75089;BME280;63673;49.928;8.150;2024-02-14T01:48:11;993.87;;;5.91;100
75089;BME280;63673;49.928;8.150;2024-02-14T01:49:12;993.84;;;5.9;100
75089;BME280;63673;49.928;8.150;2024-02-14T01:50:14;993.83;;;5.9;100
75089;BME280;63673;49.928;8.150;2024-02-14T01:51:16;993.82;;;5.88;100
75089;BME280;63673;49.928;8.150;2024-02-14T01:52:18;993.81;;;5.88;100
75089;BME280;63673;49.928;8.150;2024-02-14T01:53:19;993.8;;;5.87;100
75089;BME280;63673;49.928;8.150;2024-02-14T01:54:21;993.78;;;5.86;100
75089;BME280;63673;49.928;8.150;2024-02-14T01:55:23;993.78;;;5.85;100
75089;BME280;63673;49.928;8.150;2024-02-14T01:56:25;993.79;;;5.84;100
75089;BME280;63673;49.928;8.150;2024-02-14T01:57:26;993.77;;;5.83;100
75089;BME280;63673;49.928;8.150;2024-02-14T01:58:28;993.79;;;5.83;100
75089;BME280;63673;49.928;8.150;2024-02-14T01:59:30;993.75;;;5.82;100
75089;BME280;63673;49.928;8.150;2024-02-14T02:00:31;993.73;;;5.81;100
75089;BME280;63673;49.928;8.150;2024-02-14T02:01:33;993.69;;;5.79;100
75089;BME280;63673;49.928;8.150;2024-02-14T02:02:35;993.63;;;5.79;100
75089;BME280;63673;49.928;8.150;2024-02-14T02:03:37;993.65;;;5.78;100
75089;BME280;63673;49.928;8.150;2024-02-14T02:04:38;993.61;;;5.77;100
75089;BME280;63673;49.928;8.150;2024-02-14T02:05:40;993.62;;;5.76;100
75089;BME280;63673;49.928;8.150;2024-02-14T02:06:42;993.55;;;5.76;100
75089;BME280;63673;49.928;8.150;2024-02-14T02:07:44;993.57;;;5.75;100
75089;BME280;63673;49.928;8.150;2024-02-14T02:08:45;993.53;;;5.74;100
75089;BME280;63673;49.928;8.150;2024-02-14T02:09:47;993.52;;;5.73;100
75089;BME280;63673;49.928;8.150;2024-02-14T02:10:49;993.48;;;5.73;100
75089;BME280;63673;49.928;8.150;2024-02-14T02:11:51;993.47;;;5.71;100
75089;BME280;63673;49.928;8.150;2024-02-14T02:12:57;993.52;;;5.71;100
75089;BME280;63673;49.928;8.150;2024-02-14T02:13:54;993.48;;;5.7;100
75089;BME280;63673;49.928;8.150;2024-02-14T02:14:56;993.46;;;5.69;100
75089;BME280;63673;49.928;8.150;2024-02-14T02:15:57;993.47;;;5.69;100
75089;BME280;63673;49.928;8.150;2024-02-14T02:16:59;993.5;;;5.67;100
75089;BME280;63673;49.928;8.150;2024-02-14T02:18:01;993.46;;;5.67;100
75089;BME280;63673;49.928;8.150;2024-02-14T02:19:03;993.46;;;5.66;100
75089;BME280;63673;49.928;8.150;2024-02-14T02:20:05;993.43;;;5.66;100
75089;BME280;63673;49.928;8.150;2024-02-14T02:21:06;993.39;;;5.66;100
75089;BME280;63673;49.928;8.150;2024-02-14T02:22:08;993.45;;;5.66;100
75089;BME280;63673;49.928;8.150;2024-02-14T02:23:10;993.47;;;5.67;100
75089;BME280;63673;49.928;8.150;2024-02-14T02:24:11;993.52;;;5.67;100
75089;BME280;63673;49.928;8.150;2024-02-14T02:25:13;993.55;;;5.67;100
75089;BME280;63673;49.928;8.150;2024-02-14T02:26:15;993.53;;;5.68;100
75089;BME280;63673;49.928;8.150;2024-02-14T02:27:16;993.55;;;5.69;100
75089;BME280;63673;49.928;8.150;2024-02-14T02:28:24;993.54;;;5.7;100
75089;BME280;63673;49.928;8.150;2024-02-14T02:29:25;993.53;;;5.71;100
75089;BME280;63673;49.928;8.150;2024-02-14T02:30:27;993.55;;;5.73;100
75089;BME280;63673;49.928;8.150;2024-02-14T02:31:29;993.56;;;5.73;100
75089;BME280;63673;49.928;8.150;2024-02-14T02:32:30;993.56;;;5.75;100
75089;BME280;63673;49.928;8.150;2024-02-14T02:33:32;993.54;;;5.76;100
75089;BME280;63673;49.928;8.150;2024-02-14T02:34:34;993.53;;;5.77;100
75089;BME280;63673;49.928;8.150;2024-02-14T02:35:35;993.57;;;5.79;100
75089;BME280;63673;49.928;8.150;2024-02-14T02:36:37;993.61;;;5.79;100
75089;BME280;63673;49.928;8.150;2024-02-14T02:37:39;993.61;;;5.81;100
75089;BME280;63673;49.928;8.150;2024-02-14T02:38:41;993.57;;;5.83;100
75089;BME280;63673;49.928;8.150;2024-02-14T02:39:42;993.65;;;5.83;100
75089;BME280;63673;49.928;8.150;2024-02-14T02:40:44;993.56;;;5.84;100
75089;BME280;63673;49.928;8.150;2024-02-14T02:41:46;993.58;;;5.84;100
75089;BME280;63673;49.928;8.150;2024-02-14T02:42:48;993.64;;;5.85;100
75089;BME280;63673;49.928;8.150;2024-02-14T02:43:49;993.6;;;5.87;100
75089;BME280;63673;49.928;8.150;2024-02-14T02:44:51;993.65;;;5.87;100
75089;BME280;63673;49.928;8.150;2024-02-14T02:45:53;993.59;;;5.89;100
75089;BME280;63673;49.928;8.150;2024-02-14T02:46:55;993.61;;;5.89;100
75089;BME280;63673;49.928;8.150;2024-02-14T02:47:56;993.6;;;5.9;100
75089;BME280;63673;49.928;8.150;2024-02-14T02:48:58;993.6;;;5.9;100
75089;BME280;63673;49.928;8.150;2024-02-14T02:50:00;993.61;;;5.92;100
75089;BME280;63673;49.928;8.150;2024-02-14T02:51:02;993.62;;;5.93;100
75089;BME280;63673;49.928;8.150;2024-02-14T02:52:03;993.64;;;5.95;100
75089;BME280;63673;49.928;8.150;2024-02-14T02:53:05;993.65;;;5.95;100
75089;BME280;63673;49.928;8.150;2024-02-14T02:54:07;993.61;;;5.95;100
75089;BME280;63673;49.928;8.150;2024-02-14T02:55:10;993.62;;;5.96;100
75089;BME280;63673;49.928;8.150;2024-02-14T02:56:10;993.59;;;5.97;100
75089;BME280;63673;49.928;8.150;2024-02-14T02:57:12;993.6;;;5.96;100
75089;BME280;63673;49.928;8.150;2024-02-14T02:58:14;993.66;;;5.96;100
75089;BME280;63673;49.928;8.150;2024-02-14T02:59:15;993.61;;;5.97;100
75089;BME280;63673;49.928;8.150;2024-02-14T03:00:17;993.58;;;5.96;100
75089;BME280;63673;49.928;8.150;2024-02-14T03:01:19;993.57;;;5.97;100
75089;BME280;63673;49.928;8.150;2024-02-14T03:02:21;993.6;;;5.96;100
75089;BME280;63673;49.928;8.150;2024-02-14T03:03:22;993.58;;;5.96;100
75089;BME280;63673;49.928;8.150;2024-02-14T03:04:24;993.57;;;5.96;100
75089;BME280;63673;49.928;8.150;2024-02-14T03:05:26;993.57;;;5.96;100
75089;BME280;63673;49.928;8.150;2024-02-14T03:06:27;993.57;;;5.96;100
75089;BME280;63673;49.928;8.150;2024-02-14T03:07:29;993.62;;;5.95;100
75089;BME280;63673;49.928;8.150;2024-02-14T03:08:31;993.59;;;5.95;100
75089;BME280;63673;49.928;8.150;2024-02-14T03:09:33;993.6;;;5.95;100
75089;BME280;63673;49.928;8.150;2024-02-14T03:10:34;993.58;;;5.95;100
75089;BME280;63673;49.928;8.150;2024-02-14T03:11:36;993.61;;;5.95;100
75089;BME280;63673;49.928;8.150;2024-02-14T03:12:38;993.62;;;5.94;100
75089;BME280;63673;49.928;8.150;2024-02-14T03:13:40;993.62;;;5.94;100
75089;BME280;63673;49.928;8.150;2024-02-14T03:14:41;993.65;;;5.93;100
75089;BME280;63673;49.928;8.150;2024-02-14T03:15:44;993.63;;;5.93;100
75089;BME280;63673;49.928;8.150;2024-02-14T03:16:45;993.64;;;5.92;100
75089;BME280;63673;49.928;8.150;2024-02-14T03:17:47;993.63;;;5.91;100
75089;BME280;63673;49.928;8.150;2024-02-14T03:18:48;993.64;;;5.91;100
75089;BME280;63673;49.928;8.150;2024-02-14T03:19:50;993.63;;;5.91;100
75089;BME280;63673;49.928;8.150;2024-02-14T03:20:52;993.58;;;5.9;100
75089;BME280;63673;49.928;8.150;2024-02-14T03:21:54;993.58;;;5.9;100
75089;BME280;63673;49.928;8.150;2024-02-14T03:22:55;993.61;;;5.91;100
75089;BME280;63673;49.928;8.150;2024-02-14T03:23:57;993.63;;;5.9;100
75089;BME280;63673;49.928;8.150;2024-02-14T03:24:59;993.63;;;5.89;100
75089;BME280;63673;49.928;8.150;2024-02-14T03:26:00;993.64;;;5.9;100
75089;BME280;63673;49.928;8.150;2024-02-14T03:27:02;993.64;;;5.9;100
75089;BME280;63673;49.928;8.150;2024-02-14T03:28:04;993.6;;;5.89;100
75089;BME280;63673;49.928;8.150;2024-02-14T03:29:06;993.59;;;5.89;100
75089;BME280;63673;49.928;8.150;2024-02-14T03:30:08;993.55;;;5.88;100
75089;BME280;63673;49.928;8.150;2024-02-14T03:31:09;993.54;;;5.89;100
75089;BME280;63673;49.928;8.150;2024-02-14T03:32:11;993.59;;;5.89;100
75089;BME280;63673;49.928;8.150;2024-02-14T03:33:13;993.59;;;5.88;100
75089;BME280;63673;49.928;8.150;2024-02-14T03:34:14;993.55;;;5.88;100
75089;BME280;63673;49.928;8.150;2024-02-14T03:35:16;993.62;;;5.88;100
75089;BME280;63673;49.928;8.150;2024-02-14T03:36:18;993.6;;;5.88;100
75089;BME280;63673;49.928;8.150;2024-02-14T03:37:19;993.6;;;5.88;100
75089;BME280;63673;49.928;8.150;2024-02-14T03:38:25;993.63;;;5.86;100
75089;BME280;63673;49.928;8.150;2024-02-14T03:39:23;993.62;;;5.87;100
75089;BME280;63673;49.928;8.150;2024-02-14T03:40:25;993.66;;;5.87;100
75089;BME280;63673;49.928;8.150;2024-02-14T03:41:26;993.59;;;5.87;100
75089;BME280;63673;49.928;8.150;2024-02-14T03:42:28;993.62;;;5.86;100
75089;BME280;63673;49.928;8.150;2024-02-14T03:43:30;993.58;;;5.87;100
75089;BME280;63673;49.928;8.150;2024-02-14T03:44:32;993.57;;;5.86;100
75089;BME280;63673;49.928;8.150;2024-02-14T03:45:33;993.52;;;5.85;100
75089;BME280;63673;49.928;8.150;2024-02-14T03:46:35;993.55;;;5.86;100
75089;BME280;63673;49.928;8.150;2024-02-14T03:47:37;993.56;;;5.86;100
75089;BME280;63673;49.928;8.150;2024-02-14T03:48:39;993.55;;;5.85;100
75089;BME280;63673;49.928;8.150;2024-02-14T03:49:40;993.59;;;5.86;100
75089;BME280;63673;49.928;8.150;2024-02-14T03:50:42;993.6;;;5.86;100
75089;BME280;63673;49.928;8.150;2024-02-14T03:51:44;993.65;;;5.86;100
75089;BME280;63673;49.928;8.150;2024-02-14T03:52:46;993.69;;;5.86;100
75089;BME280;63673;49.928;8.150;2024-02-14T03:53:47;993.71;;;5.86;100
75089;BME280;63673;49.928;8.150;2024-02-14T03:54:49;993.72;;;5.86;100
75089;BME280;63673;49.928;8.150;2024-02-14T03:55:51;993.72;;;5.86;100
75089;BME280;63673;49.928;8.150;2024-02-14T03:56:52;993.69;;;5.86;100
75089;BME280;63673;49.928;8.150;2024-02-14T03:57:54;993.74;;;5.86;100
75089;BME280;63673;49.928;8.150;2024-02-14T03:58:56;993.74;;;5.86;100
75089;BME280;63673;49.928;8.150;2024-02-14T03:59:59;993.78;;;5.86;100
75089;BME280;63673;49.928;8.150;2024-02-14T04:00:59;993.79;;;5.87;100
75089;BME280;63673;49.928;8.150;2024-02-14T04:02:01;993.86;;;5.87;100
75089;BME280;63673;49.928;8.150;2024-02-14T04:03:03;993.81;;;5.87;100
75089;BME280;63673;49.928;8.150;2024-02-14T04:04:04;993.82;;;5.88;100
75089;BME280;63673;49.928;8.150;2024-02-14T04:05:06;993.84;;;5.89;100
75089;BME280;63673;49.928;8.150;2024-02-14T04:06:08;993.82;;;5.9;100
75089;BME280;63673;49.928;8.150;2024-02-14T04:07:10;993.8;;;5.91;100
75089;BME280;63673;49.928;8.150;2024-02-14T04:08:11;993.88;;;5.92;100
75089;BME280;63673;49.928;8.150;2024-02-14T04:09:13;993.85;;;5.94;100
75089;BME280;63673;49.928;8.150;2024-02-14T04:10:15;993.87;;;5.94;100
75089;BME280;63673;49.928;8.150;2024-02-14T04:11:17;993.81;;;5.95;100
75089;BME280;63673;49.928;8.150;2024-02-14T04:12:18;993.93;;;5.96;100
75089;BME280;63673;49.928;8.150;2024-02-14T04:13:20;993.94;;;5.97;100
75089;BME280;63673;49.928;8.150;2024-02-14T04:14:22;993.96;;;5.98;100
75089;BME280;63673;49.928;8.150;2024-02-14T04:15:24;993.99;;;5.98;100
75089;BME280;63673;49.928;8.150;2024-02-14T04:16:25;993.94;;;5.98;100
75089;BME280;63673;49.928;8.150;2024-02-14T04:17:27;994.04;;;5.99;100
75089;BME280;63673;49.928;8.150;2024-02-14T04:18:29;994.07;;;5.99;100
75089;BME280;63673;49.928;8.150;2024-02-14T04:19:30;994.08;;;6;100
75089;BME280;63673;49.928;8.150;2024-02-14T04:20:32;994.14;;;6;100
75089;BME280;63673;49.928;8.150;2024-02-14T04:21:34;994.07;;;6;100
75089;BME280;63673;49.928;8.150;2024-02-14T04:22:36;994.04;;;6;100
75089;BME280;63673;49.928;8.150;2024-02-14T04:23:37;994.02;;;6;100
75089;BME280;63673;49.928;8.150;2024-02-14T04:24:39;994.01;;;6;100
75089;BME280;63673;49.928;8.150;2024-02-14T04:25:41;994.01;;;6;100
75089;BME280;63673;49.928;8.150;2024-02-14T04:26:43;994.01;;;6;100
75089;BME280;63673;49.928;8.150;2024-02-14T04:27:44;994.04;;;6;100
75089;BME280;63673;49.928;8.150;2024-02-14T04:28:46;994.03;;;6;100
75089;BME280;63673;49.928;8.150;2024-02-14T04:29:48;994;;;5.99;100
75089;BME280;63673;49.928;8.150;2024-02-14T04:30:50;994.04;;;5.98;100
75089;BME280;63673;49.928;8.150;2024-02-14T04:31:51;994.04;;;5.99;100
75089;BME280;63673;49.928;8.150;2024-02-14T04:32:53;994;;;5.99;100
75089;BME280;63673;49.928;8.150;2024-02-14T04:33:55;994.05;;;5.99;100
75089;BME280;63673;49.928;8.150;2024-02-14T04:34:57;994.07;;;5.99;100
75089;BME280;63673;49.928;8.150;2024-02-14T04:35:58;994.05;;;5.99;100
75089;BME280;63673;49.928;8.150;2024-02-14T04:37:00;994.09;;;5.99;100
75089;BME280;63673;49.928;8.150;2024-02-14T04:38:02;994.07;;;5.98;100
75089;BME280;63673;49.928;8.150;2024-02-14T04:39:03;994.06;;;5.98;100
75089;BME280;63673;49.928;8.150;2024-02-14T04:40:06;994.05;;;5.99;100
75089;BME280;63673;49.928;8.150;2024-02-14T04:41:07;994.03;;;6;100
75089;BME280;63673;49.928;8.150;2024-02-14T04:42:09;994.04;;;6;100
75089;BME280;63673;49.928;8.150;2024-02-14T04:43:10;994.05;;;5.99;100
75089;BME280;63673;49.928;8.150;2024-02-14T04:44:12;994.05;;;6;100
75089;BME280;63673;49.928;8.150;2024-02-14T04:45:14;994;;;6;100
75089;BME280;63673;49.928;8.150;2024-02-14T04:46:16;994.03;;;6;100
75089;BME280;63673;49.928;8.150;2024-02-14T04:47:17;993.99;;;6;100
75089;BME280;63673;49.928;8.150;2024-02-14T04:48:19;993.96;;;6.02;100
75089;BME280;63673;49.928;8.150;2024-02-14T04:49:21;993.9;;;6.03;100
75089;BME280;63673;49.928;8.150;2024-02-14T04:50:23;993.9;;;6.04;100
75089;BME280;63673;49.928;8.150;2024-02-14T04:51:24;993.91;;;6.05;100
75089;BME280;63673;49.928;8.150;2024-02-14T04:52:26;993.86;;;6.07;100
75089;BME280;63673;49.928;8.150;2024-02-14T04:53:28;993.88;;;6.07;100
75089;BME280;63673;49.928;8.150;2024-02-14T04:54:30;993.9;;;6.09;100
75089;BME280;63673;49.928;8.150;2024-02-14T04:55:31;993.91;;;6.11;100
75089;BME280;63673;49.928;8.150;2024-02-14T04:56:33;993.86;;;6.12;100
75089;BME280;63673;49.928;8.150;2024-02-14T04:57:35;993.86;;;6.14;100
75089;BME280;63673;49.928;8.150;2024-02-14T04:58:36;993.84;;;6.14;100
75089;BME280;63673;49.928;8.150;2024-02-14T04:59:38;993.83;;;6.16;100
75089;BME280;63673;49.928;8.150;2024-02-14T05:00:40;993.8;;;6.18;100
75089;BME280;63673;49.928;8.150;2024-02-14T05:01:42;993.79;;;6.19;100
75089;BME280;63673;49.928;8.150;2024-02-14T05:02:43;993.78;;;6.22;100
75089;BME280;63673;49.928;8.150;2024-02-14T05:03:45;993.8;;;6.23;100
75089;BME280;63673;49.928;8.150;2024-02-14T05:04:47;993.77;;;6.25;100
75089;BME280;63673;49.928;8.150;2024-02-14T05:05:49;993.78;;;6.26;100
75089;BME280;63673;49.928;8.150;2024-02-14T05:06:50;993.68;;;6.28;100
75089;BME280;63673;49.928;8.150;2024-02-14T05:07:52;993.66;;;6.29;100
75089;BME280;63673;49.928;8.150;2024-02-14T05:08:54;993.72;;;6.3;100
75089;BME280;63673;49.928;8.150;2024-02-14T05:09:55;993.72;;;6.31;100
75089;BME280;63673;49.928;8.150;2024-02-14T05:10:57;993.71;;;6.32;100
75089;BME280;63673;49.928;8.150;2024-02-14T05:11:59;993.69;;;6.32;100
75089;BME280;63673;49.928;8.150;2024-02-14T05:13:01;993.7;;;6.34;100
75089;BME280;63673;49.928;8.150;2024-02-14T05:14:02;993.75;;;6.34;100
75089;BME280;63673;49.928;8.150;2024-02-14T05:15:06;993.82;;;6.35;100
75089;BME280;63673;49.928;8.150;2024-02-14T05:16:06;993.83;;;6.36;100
75089;BME280;63673;49.928;8.150;2024-02-14T05:17:08;993.88;;;6.37;100
75089;BME280;63673;49.928;8.150;2024-02-14T05:18:09;993.89;;;6.38;100
75089;BME280;63673;49.928;8.150;2024-02-14T05:19:11;993.9;;;6.39;100
75089;BME280;63673;49.928;8.150;2024-02-14T05:20:13;993.96;;;6.39;100
75089;BME280;63673;49.928;8.150;2024-02-14T05:21:15;993.93;;;6.4;100
75089;BME280;63673;49.928;8.150;2024-02-14T05:22:17;993.94;;;6.41;100
75089;BME280;63673;49.928;8.150;2024-02-14T05:23:18;993.91;;;6.42;100
75089;BME280;63673;49.928;8.150;2024-02-14T05:24:20;993.91;;;6.44;100
75089;BME280;63673;49.928;8.150;2024-02-14T05:25:21;993.87;;;6.44;100
75089;BME280;63673;49.928;8.150;2024-02-14T05:26:23;993.8;;;6.45;100
75089;BME280;63673;49.928;8.150;2024-02-14T05:27:25;993.85;;;6.46;100
75089;BME280;63673;49.928;8.150;2024-02-14T05:28:27;993.85;;;6.46;100
75089;BME280;63673;49.928;8.150;2024-02-14T05:29:28;993.84;;;6.48;100
75089;BME280;63673;49.928;8.150;2024-02-14T05:30:30;993.9;;;6.48;100
75089;BME280;63673;49.928;8.150;2024-02-14T05:31:42;993.86;;;6.49;100
75089;BME280;63673;49.928;8.150;2024-02-14T05:32:33;993.86;;;6.49;100
75089;BME280;63673;49.928;8.150;2024-02-14T05:33:35;993.82;;;6.5;100
75089;BME280;63673;49.928;8.150;2024-02-14T05:34:37;993.85;;;6.51;100
75089;BME280;63673;49.928;8.150;2024-02-14T05:35:39;993.86;;;6.51;100
75089;BME280;63673;49.928;8.150;2024-02-14T05:36:40;993.84;;;6.52;100
75089;BME280;63673;49.928;8.150;2024-02-14T05:37:42;993.87;;;6.53;100
75089;BME280;63673;49.928;8.150;2024-02-14T05:38:44;993.9;;;6.54;100
75089;BME280;63673;49.928;8.150;2024-02-14T05:39:46;993.89;;;6.55;100
75089;BME280;63673;49.928;8.150;2024-02-14T05:40:47;993.87;;;6.55;100
75089;BME280;63673;49.928;8.150;2024-02-14T05:41:49;993.94;;;6.56;100
75089;BME280;63673;49.928;8.150;2024-02-14T05:42:51;993.9;;;6.57;100
75089;BME280;63673;49.928;8.150;2024-02-14T05:43:53;993.91;;;6.57;100
75089;BME280;63673;49.928;8.150;2024-02-14T05:44:54;993.95;;;6.58;100
75089;BME280;63673;49.928;8.150;2024-02-14T05:45:56;994.03;;;6.57;100
75089;BME280;63673;49.928;8.150;2024-02-14T05:46:58;994.01;;;6.58;100
75089;BME280;63673;49.928;8.150;2024-02-14T05:47:59;993.99;;;6.59;100
75089;BME280;63673;49.928;8.150;2024-02-14T05:49:01;994.02;;;6.6;100
75089;BME280;63673;49.928;8.150;2024-02-14T05:50:16;994;;;6.6;100
75089;BME280;63673;49.928;8.150;2024-02-14T05:51:20;993.96;;;6.61;100
75089;BME280;63673;49.928;8.150;2024-02-14T05:52:22;993.99;;;6.61;100